Time,TemperatureF,DewpointF,PressureIn,WindDirection,WindDirectionDegrees,WindSpeedMPH,WindSpeedGustMPH,Humidity,HourlyPrecipIn,Conditions,Clouds,dailyrainin,SoftwareType,DateUTC
2013-03-06 00:00:00,48.0,40.1,30.03,NE,41,0.0,0.0,74,0.00,,SKC,0.00,VWS V13.01,2013-03-06 06:00:00,
2013-03-06 00:05:00,47.8,40.0,30.03,NE,41,0.0,0.0,74,0.00,,SKC,0.00,VWS V13.01,2013-03-06 06:05:00,
2013-03-06 00:10:00,47.8,40.3,30.03,NE,41,0.0,0.0,75,0.00,,SKC,0.00,VWS V13.01,2013-03-06 06:10:00,
2013-03-06 00:15:00,47.7,40.5,30.03,NE,41,0.0,0.0,76,0.00,,SKC,0.00,VWS V13.01,2013-03-06 06:15:00,
2013-03-06 00:20:00,47.5,40.3,30.03,NE,41,0.0,0.0,76,0.00,,SKC,0.00,VWS V13.01,2013-03-06 06:20:00,
2013-03-06 00:25:00,47.3,40.1,30.03,NE,41,0.0,0.0,76,0.00,,SKC,0.00,VWS V13.01,2013-03-06 06:25:00,
2013-03-06 00:30:00,47.3,40.5,30.03,NE,41,0.0,0.0,77,0.00,,SKC,0.00,VWS V13.01,2013-03-06 06:30:00,
2013-03-06 00:35:00,47.1,40.6,30.03,NE,41,0.0,0.0,78,0.00,,SKC,0.00,VWS V13.01,2013-03-06 06:35:00,
2013-03-06 00:40:00,47.1,40.3,30.03,NE,41,0.0,0.0,77,0.00,,SKC,0.00,VWS V13.01,2013-03-06 06:40:00,
2013-03-06 00:45:00,46.9,40.5,30.03,NE,41,0.0,0.0,78,0.00,,SKC,0.00,VWS V13.01,2013-03-06 06:45:00,
2013-03-06 00:50:00,46.8,40.6,30.03,NE,41,0.0,0.0,79,0.00,,SKC,0.00,VWS V13.01,2013-03-06 06:50:00,
2013-03-06 00:55:00,46.6,40.8,30.03,NE,41,0.0,0.0,80,0.00,,SKC,0.00,VWS V13.01,2013-03-06 06:55:00,
2013-03-06 01:00:00,46.4,40.6,30.03,NE,41,0.0,0.0,80,0.00,,SKC,0.00,VWS V13.01,2013-03-06 07:00:00,
2013-03-06 01:05:00,46.4,40.9,30.06,NE,41,0.0,2.7,81,0.00,,SKC,0.00,VWS V13.01,2013-03-06 07:05:00,
2013-03-06 01:10:00,46.4,40.9,30.06,NNW,327,0.0,2.7,81,0.00,,SKC,0.00,VWS V13.01,2013-03-06 07:10:00,
2013-03-06 01:15:00,46.6,40.1,30.06,North,10,2.2,4.9,78,0.00,,SKC,0.00,VWS V13.01,2013-03-06 07:15:00,
2013-03-06 01:20:00,46.9,39.1,30.06,North,1,3.1,5.4,74,0.00,,SKC,0.00,VWS V13.01,2013-03-06 07:20:00,
2013-03-06 01:25:00,47.3,38.7,30.06,North,351,3.1,6.3,72,0.00,,SKC,0.00,VWS V13.01,2013-03-06 07:25:00,
2013-03-06 01:30:00,47.8,37.8,30.06,North,9,6.3,6.3,68,0.00,,SKC,0.00,VWS V13.01,2013-03-06 07:30:00,
2013-03-06 01:35:00,48.4,37.2,30.06,North,357,5.4,5.4,65,0.00,,SKC,0.00,VWS V13.01,2013-03-06 07:35:00,
2013-03-06 01:40:00,48.6,37.3,30.06,NNW,336,3.6,5.4,65,0.00,,SKC,0.00,VWS V13.01,2013-03-06 07:40:00,
2013-03-06 01:45:00,48.6,37.3,30.06,NW,318,3.1,5.8,65,0.00,,SKC,0.00,VWS V13.01,2013-03-06 07:45:00,
2013-03-06 01:50:00,48.7,37.5,30.06,North,350,3.6,6.3,65,0.00,,SKC,0.00,VWS V13.01,2013-03-06 07:50:00,
2013-03-06 01:55:00,48.7,37.5,30.06,North,360,3.1,8.1,65,0.00,,SKC,0.00,VWS V13.01,2013-03-06 07:55:00,
2013-03-06 02:00:00,48.7,36.7,30.06,North,2,8.3,8.3,63,0.00,,SKC,0.00,VWS V13.01,2013-03-06 08:00:00,
2013-03-06 02:05:00,48.7,36.7,30.06,North,350,3.1,6.7,63,0.00,,SKC,0.00,VWS V13.01,2013-03-06 08:05:00,
2013-03-06 02:10:00,48.6,36.5,30.06,NE,46,6.3,6.3,63,0.00,,SKC,0.00,VWS V13.01,2013-03-06 08:10:00,
2013-03-06 02:15:00,48.6,36.5,30.06,NE,40,4.0,4.0,63,0.00,,SKC,0.00,VWS V13.01,2013-03-06 08:15:00,
2013-03-06 02:20:00,48.2,36.2,30.06,NNE,22,2.2,2.2,63,0.00,,SKC,0.00,VWS V13.01,2013-03-06 08:20:00,
2013-03-06 02:25:00,48.0,36.0,30.06,ENE,57,3.6,3.6,63,0.00,,SKC,0.00,VWS V13.01,2013-03-06 08:25:00,
2013-03-06 02:30:00,47.8,35.9,30.06,NE,34,6.3,6.3,63,0.00,,SKC,0.00,VWS V13.01,2013-03-06 08:30:00,
2013-03-06 02:35:00,47.8,35.9,30.06,NNE,18,3.1,5.4,63,0.00,,SKC,0.00,VWS V13.01,2013-03-06 08:35:00,
2013-03-06 02:40:00,47.8,35.9,30.06,NNE,29,2.7,3.6,63,0.00,,SKC,0.00,VWS V13.01,2013-03-06 08:40:00,
2013-03-06 02:45:00,47.5,35.5,30.06,North,7,5.8,5.8,63,0.00,,SKC,0.00,VWS V13.01,2013-03-06 08:45:00,
2013-03-06 02:50:00,47.3,35.4,30.06,NNE,14,2.7,2.7,63,0.00,,SKC,0.00,VWS V13.01,2013-03-06 08:50:00,
2013-03-06 02:55:00,47.1,35.2,30.06,NE,38,0.0,4.0,63,0.00,,SKC,0.00,VWS V13.01,2013-03-06 08:55:00,
2013-03-06 03:00:00,46.9,35.0,30.06,North,8,2.2,2.7,63,0.00,,SKC,0.00,VWS V13.01,2013-03-06 09:00:00,
2013-03-06 03:05:00,46.8,34.8,30.06,NNE,24,4.0,4.0,63,0.00,,SKC,0.00,VWS V13.01,2013-03-06 09:05:00,
2013-03-06 03:10:00,46.4,34.5,30.06,North,352,0.0,0.0,63,0.00,,SKC,0.00,VWS V13.01,2013-03-06 09:10:00,
2013-03-06 03:15:00,46.0,34.6,30.06,North,352,0.0,0.0,64,0.00,,SKC,0.00,VWS V13.01,2013-03-06 09:15:00,
2013-03-06 03:20:00,45.5,34.0,30.06,NNE,14,3.1,3.1,64,0.00,,SKC,0.00,VWS V13.01,2013-03-06 09:20:00,
2013-03-06 03:25:00,45.1,33.7,30.06,North,8,4.0,5.4,64,0.00,,SKC,0.00,VWS V13.01,2013-03-06 09:25:00,
2013-03-06 03:30:00,44.8,33.4,30.06,North,5,4.0,4.0,64,0.00,,SKC,0.00,VWS V13.01,2013-03-06 09:30:00,
2013-03-06 03:35:00,44.8,33.4,30.06,ENE,60,4.5,4.5,64,0.00,,SKC,0.00,VWS V13.01,2013-03-06 09:35:00,
2013-03-06 03:40:00,45.0,33.5,30.06,NW,321,0.0,0.0,64,0.00,,SKC,0.00,VWS V13.01,2013-03-06 09:40:00,
2013-03-06 03:45:00,45.0,33.5,30.06,NNW,344,0.0,0.0,64,0.00,,SKC,0.00,VWS V13.01,2013-03-06 09:45:00,
2013-03-06 03:50:00,44.8,33.4,30.09,North,355,0.0,4.0,64,0.00,,SKC,0.00,VWS V13.01,2013-03-06 09:50:00,
2013-03-06 03:55:00,44.4,33.0,30.09,North,355,0.0,0.0,64,0.00,,SKC,0.00,VWS V13.01,2013-03-06 09:55:00,
2013-03-06 04:00:00,44.1,32.7,30.09,North,355,0.0,0.0,64,0.00,,SKC,0.00,VWS V13.01,2013-03-06 10:00:00,
2013-03-06 04:05:00,43.5,32.2,30.09,North,355,0.0,0.0,64,0.00,,SKC,0.00,VWS V13.01,2013-03-06 10:05:00,
2013-03-06 04:10:00,43.2,31.8,30.09,North,355,0.0,0.0,64,0.00,,SKC,0.00,VWS V13.01,2013-03-06 10:10:00,
2013-03-06 04:15:00,42.8,31.5,30.09,North,355,0.0,0.0,64,0.00,,SKC,0.00,VWS V13.01,2013-03-06 10:15:00,
2013-03-06 04:20:00,42.4,31.5,30.09,North,355,0.0,0.0,65,0.00,,SKC,0.00,VWS V13.01,2013-03-06 10:20:00,
2013-03-06 04:25:00,42.1,31.2,30.09,North,355,0.0,3.1,65,0.00,,SKC,0.00,VWS V13.01,2013-03-06 10:25:00,
2013-03-06 04:30:00,41.9,31.8,30.09,North,355,0.0,0.0,67,0.00,,SKC,0.00,VWS V13.01,2013-03-06 10:30:00,
2013-03-06 04:35:00,41.7,31.6,30.09,North,355,0.0,0.0,67,0.00,,SKC,0.00,VWS V13.01,2013-03-06 10:35:00,
2013-03-06 04:40:00,41.5,31.4,30.09,NNW,331,0.0,0.0,67,0.00,,SKC,0.00,VWS V13.01,2013-03-06 10:40:00,
2013-03-06 04:45:00,41.4,30.5,30.09,NW,312,0.0,0.0,65,0.00,,SKC,0.00,VWS V13.01,2013-03-06 10:45:00,
2013-03-06 04:50:00,41.5,30.7,30.09,North,5,0.0,0.0,65,0.00,,SKC,0.00,VWS V13.01,2013-03-06 10:50:00,
2013-03-06 04:55:00,41.5,30.7,30.09,North,5,0.0,0.0,65,0.00,,SKC,0.00,VWS V13.01,2013-03-06 10:55:00,
2013-03-06 04:59:00,41.5,30.7,30.09,North,5,0.0,0.0,65,0.00,,SKC,0.00,VWS V13.01,2013-03-06 10:59:00,
2013-03-06 05:04:00,41.4,31.2,30.12,North,5,0.0,0.0,67,0.00,,SKC,0.00,VWS V13.01,2013-03-06 11:04:00,
2013-03-06 05:09:00,41.0,30.1,30.12,North,5,0.0,0.0,65,0.00,,SKC,0.00,VWS V13.01,2013-03-06 11:09:00,
2013-03-06 05:14:00,40.6,29.8,30.12,NNW,333,2.2,2.2,65,0.00,,SKC,0.00,VWS V13.01,2013-03-06 11:14:00,
2013-03-06 05:19:00,40.5,29.6,30.12,NW,323,2.7,3.1,65,0.00,,SKC,0.00,VWS V13.01,2013-03-06 11:19:00,
2013-03-06 05:24:00,40.3,29.5,30.12,NW,323,0.0,0.0,65,0.00,,SKC,0.00,VWS V13.01,2013-03-06 11:24:00,
2013-03-06 05:29:00,40.3,30.2,30.12,NW,323,0.0,2.2,67,0.00,,SKC,0.00,VWS V13.01,2013-03-06 11:29:00,
2013-03-06 05:34:00,40.1,30.0,30.12,NW,323,0.0,0.0,67,0.00,,SKC,0.00,VWS V13.01,2013-03-06 11:34:00,
2013-03-06 05:39:00,39.9,29.9,30.12,NW,323,2.2,3.1,67,0.00,,SKC,0.00,VWS V13.01,2013-03-06 11:39:00,
2013-03-06 05:44:00,39.7,29.7,30.12,WNW,295,2.7,2.7,67,0.00,,SKC,0.00,VWS V13.01,2013-03-06 11:44:00,
2013-03-06 05:49:00,39.7,29.7,30.12,NW,310,0.0,2.7,67,0.00,,SKC,0.00,VWS V13.01,2013-03-06 11:49:00,
2013-03-06 05:54:00,39.7,29.7,30.12,NW,310,0.0,0.0,67,0.00,,SKC,0.00,VWS V13.01,2013-03-06 11:54:00,
2013-03-06 05:59:00,39.6,29.5,30.12,NW,318,0.0,0.0,67,0.00,,SKC,0.00,VWS V13.01,2013-03-06 11:59:00,
2013-03-06 06:04:00,39.4,29.4,30.12,NW,318,3.1,3.1,67,0.00,,SKC,0.00,VWS V13.01,2013-03-06 12:04:00,
2013-03-06 06:09:00,39.2,29.2,30.12,NW,318,0.0,0.0,67,0.00,,SKC,0.00,VWS V13.01,2013-03-06 12:09:00,
2013-03-06 06:14:00,39.2,29.2,30.12,NW,318,0.0,0.0,67,0.00,,SKC,0.00,VWS V13.01,2013-03-06 12:14:00,
2013-03-06 06:19:00,39.0,29.4,30.15,NW,318,2.7,2.7,68,0.00,,SKC,0.00,VWS V13.01,2013-03-06 12:19:00,
2013-03-06 06:24:00,38.8,29.2,30.15,NW,318,0.0,0.0,68,0.00,,SKC,0.00,VWS V13.01,2013-03-06 12:24:00,
2013-03-06 06:29:00,38.8,29.2,30.15,NW,318,0.0,0.0,68,0.00,,SKC,0.00,VWS V13.01,2013-03-06 12:29:00,
2013-03-06 06:34:00,39.0,29.4,30.15,NW,318,0.0,0.0,68,0.00,,SKC,0.00,VWS V13.01,2013-03-06 12:34:00,
2013-03-06 06:39:00,39.7,31.5,30.15,NW,318,0.0,0.0,72,0.00,,SKC,0.00,VWS V13.01,2013-03-06 12:39:00,
2013-03-06 06:44:00,40.3,30.2,30.15,NW,318,3.1,3.1,67,0.00,,SKC,0.00,VWS V13.01,2013-03-06 12:44:00,
2013-03-06 06:49:00,39.9,29.9,30.15,WNW,297,2.2,3.6,67,0.00,,SKC,0.00,VWS V13.01,2013-03-06 12:49:00,
2013-03-06 06:54:00,39.9,29.9,30.15,NW,325,3.1,3.6,67,0.00,,SKC,0.00,VWS V13.01,2013-03-06 12:54:00,
2013-03-06 06:59:00,40.1,31.1,30.15,NW,325,0.0,2.7,70,0.00,,SKC,0.00,VWS V13.01,2013-03-06 12:59:00,
2013-03-06 07:04:00,40.3,31.3,30.15,NW,325,0.0,0.0,70,0.00,,SKC,0.00,VWS V13.01,2013-03-06 13:04:00,
2013-03-06 07:09:00,40.6,31.6,30.15,North,351,0.0,0.0,70,0.00,,SKC,0.00,VWS V13.01,2013-03-06 13:09:00,
2013-03-06 07:14:00,41.4,31.2,30.15,NNW,348,3.6,3.6,67,0.00,,SKC,0.00,VWS V13.01,2013-03-06 13:14:00,
2013-03-06 07:19:00,42.1,31.2,30.15,North,8,2.7,2.7,65,0.00,,SKC,0.00,VWS V13.01,2013-03-06 13:19:00,
2013-03-06 07:24:00,42.8,31.5,30.15,NW,320,3.1,3.1,64,0.00,,SKC,0.00,VWS V13.01,2013-03-06 13:24:00,
2013-03-06 07:29:00,43.5,32.2,30.15,NNW,346,0.0,0.0,64,0.00,,SKC,0.00,VWS V13.01,2013-03-06 13:29:00,
2013-03-06 07:34:00,44.2,32.8,30.15,NW,324,3.6,4.0,64,0.00,,SKC,0.00,VWS V13.01,2013-03-06 13:34:00,
2013-03-06 07:39:00,45.0,33.5,30.15,NNW,345,3.1,3.6,64,0.00,,SKC,0.00,VWS V13.01,2013-03-06 13:39:00,
2013-03-06 07:44:00,45.7,34.2,30.15,NW,321,5.8,5.8,64,0.00,,SKC,0.00,VWS V13.01,2013-03-06 13:44:00,
2013-03-06 07:49:00,46.6,34.7,30.15,NW,315,3.6,5.4,63,0.00,,SKC,0.00,VWS V13.01,2013-03-06 13:49:00,
2013-03-06 07:54:00,47.1,35.2,30.15,NW,319,0.0,0.0,63,0.00,,SKC,0.00,VWS V13.01,2013-03-06 13:54:00,
2013-03-06 07:59:00,47.7,35.7,30.15,NNW,334,3.1,5.8,63,0.00,,SKC,0.00,VWS V13.01,2013-03-06 13:59:00,
2013-03-06 08:04:00,48.0,36.0,30.18,North,350,8.7,8.7,63,0.00,,SKC,0.00,VWS V13.01,2013-03-06 14:04:00,
2013-03-06 08:09:00,48.6,36.5,30.18,ENE,62,4.0,4.0,63,0.00,,SKC,0.00,VWS V13.01,2013-03-06 14:09:00,
2013-03-06 08:14:00,49.1,37.1,30.18,North,354,3.6,3.6,63,0.00,,SKC,0.00,VWS V13.01,2013-03-06 14:14:00,
2013-03-06 08:19:00,49.5,37.4,30.18,NNW,327,3.1,8.3,63,0.00,,SKC,0.00,VWS V13.01,2013-03-06 14:19:00,
2013-03-06 08:24:00,49.8,37.8,30.18,ENE,57,8.1,8.3,63,0.00,,SKC,0.00,VWS V13.01,2013-03-06 14:24:00,
2013-03-06 08:29:00,50.4,38.3,30.18,ENE,77,4.9,13.2,63,0.00,,SKC,0.00,VWS V13.01,2013-03-06 14:29:00,
2013-03-06 08:34:00,50.2,38.1,30.18,North,8,12.3,12.3,63,0.00,,SKC,0.00,VWS V13.01,2013-03-06 14:34:00,
2013-03-06 08:39:00,50.5,38.4,30.18,NNE,18,3.6,13.2,63,0.00,,SKC,0.00,VWS V13.01,2013-03-06 14:39:00,
2013-03-06 08:44:00,50.9,38.8,30.18,NNE,27,10.5,15.4,63,0.00,,SKC,0.00,VWS V13.01,2013-03-06 14:44:00,
2013-03-06 08:49:00,50.7,38.6,30.18,East,101,2.2,2.7,63,0.00,,SKC,0.00,VWS V13.01,2013-03-06 14:49:00,
2013-03-06 08:54:00,51.4,39.3,30.18,North,8,5.8,7.6,63,0.00,,SKC,0.00,VWS V13.01,2013-03-06 14:54:00,
2013-03-06 08:59:00,51.4,39.3,30.18,NW,322,4.0,5.8,63,0.00,,SKC,0.00,VWS V13.01,2013-03-06 14:59:00,
2013-03-06 09:04:00,51.8,39.2,30.18,NW,320,9.6,9.6,62,0.00,,SKC,0.00,VWS V13.01,2013-03-06 15:04:00,
2013-03-06 09:09:00,52.5,39.9,30.18,NNE,20,4.0,7.6,62,0.00,,SKC,0.00,VWS V13.01,2013-03-06 15:09:00,
2013-03-06 09:14:00,52.9,40.2,30.18,WNW,290,11.0,11.0,62,0.00,,SKC,0.00,VWS V13.01,2013-03-06 15:14:00,
2013-03-06 09:19:00,52.7,40.1,30.18,North,2,2.7,3.6,62,0.00,,SKC,0.00,VWS V13.01,2013-03-06 15:19:00,
2013-03-06 09:24:00,53.6,40.9,30.18,NNW,347,2.7,5.4,62,0.00,,SKC,0.00,VWS V13.01,2013-03-06 15:24:00,
2013-03-06 09:29:00,53.8,41.1,30.18,North,4,3.6,10.1,62,0.00,,SKC,0.00,VWS V13.01,2013-03-06 15:29:00,
2013-03-06 09:34:00,54.0,41.2,30.15,North,358,3.1,11.0,62,0.00,,SKC,0.00,VWS V13.01,2013-03-06 15:34:00,
2013-03-06 09:39:00,54.5,41.8,30.15,NNE,14,0.0,3.1,62,0.00,,SKC,0.00,VWS V13.01,2013-03-06 15:39:00,
2013-03-06 09:44:00,55.4,42.2,30.15,NNE,20,8.3,8.3,61,0.00,,SKC,0.00,VWS V13.01,2013-03-06 15:44:00,
2013-03-06 09:49:00,55.6,42.4,30.15,NW,314,12.8,13.2,61,0.00,,SKC,0.00,VWS V13.01,2013-03-06 15:49:00,
2013-03-06 09:54:00,56.3,44.3,30.15,West,269,6.3,8.1,64,0.00,,SKC,0.00,VWS V13.01,2013-03-06 15:54:00,
2013-03-06 09:59:00,56.7,44.6,30.15,NNE,20,3.1,7.2,64,0.00,,SKC,0.00,VWS V13.01,2013-03-06 15:59:00,
2013-03-06 10:04:00,56.8,44.8,30.15,NNW,346,3.6,3.6,64,0.00,,SKC,0.00,VWS V13.01,2013-03-06 16:04:00,
2013-03-06 10:09:00,57.2,44.7,30.15,NW,310,4.0,6.3,63,0.00,,SKC,0.00,VWS V13.01,2013-03-06 16:09:00,
2013-03-06 10:14:00,57.2,44.7,30.15,NE,37,4.0,14.1,63,0.00,,SKC,0.00,VWS V13.01,2013-03-06 16:14:00,
2013-03-06 10:19:00,56.8,44.8,30.15,NNE,32,2.7,8.1,64,0.00,,SKC,0.00,VWS V13.01,2013-03-06 16:19:00,
2013-03-06 10:24:00,57.0,45.0,30.15,NNW,346,4.9,12.3,64,0.00,,SKC,0.00,VWS V13.01,2013-03-06 16:24:00,
2013-03-06 10:29:00,56.8,44.8,30.15,NW,307,3.1,5.8,64,0.00,,SKC,0.00,VWS V13.01,2013-03-06 16:29:00,
2013-03-06 10:34:00,58.1,45.6,30.15,NNE,29,8.3,8.3,63,0.00,,SKC,0.00,VWS V13.01,2013-03-06 16:34:00,
2013-03-06 10:39:00,58.8,46.3,30.15,South,191,2.7,4.0,63,0.00,,SKC,0.00,VWS V13.01,2013-03-06 16:39:00,
2013-03-06 10:44:00,58.6,46.1,30.15,SE,138,5.4,6.3,63,0.00,,SKC,0.00,VWS V13.01,2013-03-06 16:44:00,
2013-03-06 10:49:00,58.5,45.9,30.15,NNW,348,4.0,7.6,63,0.00,,SKC,0.00,VWS V13.01,2013-03-06 16:49:00,
2013-03-06 10:54:00,58.8,46.3,30.15,West,272,3.1,6.3,63,0.00,,SKC,0.00,VWS V13.01,2013-03-06 16:54:00,
2013-03-06 10:59:00,59.2,46.6,30.15,North,8,5.4,5.4,63,0.00,,SKC,0.00,VWS V13.01,2013-03-06 16:59:00,
2013-03-06 11:04:00,59.5,47.0,30.15,NNW,347,5.8,6.3,63,0.00,,SKC,0.00,VWS V13.01,2013-03-06 17:04:00,
2013-03-06 11:09:00,59.7,47.1,30.15,NNW,340,6.3,7.6,63,0.00,,SKC,0.00,VWS V13.01,2013-03-06 17:09:00,
2013-03-06 11:14:00,60.3,47.6,30.15,NNW,344,10.1,14.1,63,0.00,,SKC,0.00,VWS V13.01,2013-03-06 17:14:00,
2013-03-06 11:19:00,59.5,47.0,30.15,NNW,335,3.6,5.8,63,0.00,,SKC,0.00,VWS V13.01,2013-03-06 17:19:00,
2013-03-06 11:24:00,60.4,47.8,30.15,NNW,335,9.6,9.6,63,0.00,,SKC,0.00,VWS V13.01,2013-03-06 17:24:00,
2013-03-06 11:29:00,59.7,47.1,30.15,NE,36,10.5,10.5,63,0.00,,SKC,0.00,VWS V13.01,2013-03-06 17:29:00,
2013-03-06 11:34:00,59.9,47.3,30.12,ENE,57,5.8,8.1,63,0.00,,SKC,0.00,VWS V13.01,2013-03-06 17:34:00,
2013-03-06 11:39:00,60.6,48.0,30.12,ENE,65,3.6,3.6,63,0.00,,SKC,0.00,VWS V13.01,2013-03-06 17:39:00,
2013-03-06 11:44:00,61.2,48.5,30.12,WNW,297,5.8,6.3,63,0.00,,SKC,0.00,VWS V13.01,2013-03-06 17:44:00,
2013-03-06 11:49:00,61.7,49.0,30.12,NNE,31,5.8,8.7,63,0.00,,SKC,0.00,VWS V13.01,2013-03-06 17:49:00,
2013-03-06 11:54:00,61.5,48.8,30.12,North,1,6.7,8.7,63,0.00,,SKC,0.00,VWS V13.01,2013-03-06 17:54:00,
2013-03-06 11:59:00,61.7,49.0,30.12,West,271,4.9,4.9,63,0.00,,SKC,0.00,VWS V13.01,2013-03-06 17:59:00,
2013-03-06 12:04:00,62.1,49.3,30.12,WNW,297,9.2,9.2,63,0.00,,SKC,0.00,VWS V13.01,2013-03-06 18:04:00,
2013-03-06 12:09:00,62.1,49.3,30.12,NNW,348,12.3,12.3,63,0.00,,SKC,0.00,VWS V13.01,2013-03-06 18:09:00,
2013-03-06 12:14:00,62.6,49.4,30.12,WNW,295,12.8,12.8,62,0.00,,SKC,0.00,VWS V13.01,2013-03-06 18:14:00,
2013-03-06 12:19:00,62.4,49.7,30.12,NNE,19,10.5,10.5,63,0.00,,SKC,0.00,VWS V13.01,2013-03-06 18:19:00,
2013-03-06 12:24:00,62.2,49.5,30.12,NNW,330,7.6,7.6,63,0.00,,SKC,0.00,VWS V13.01,2013-03-06 18:24:00,
2013-03-06 12:29:00,62.6,49.4,30.12,NNW,330,12.3,12.3,62,0.00,,SKC,0.00,VWS V13.01,2013-03-06 18:29:00,
2013-03-06 12:34:00,63.1,49.9,30.09,NNW,345,3.1,5.8,62,0.00,,SKC,0.00,VWS V13.01,2013-03-06 18:34:00,
2013-03-06 12:39:00,63.1,49.9,30.09,NNW,336,4.0,4.0,62,0.00,,SKC,0.00,VWS V13.01,2013-03-06 18:39:00,
2013-03-06 12:44:00,63.1,49.9,30.09,West,259,2.7,3.1,62,0.00,,SKC,0.00,VWS V13.01,2013-03-06 18:44:00,
2013-03-06 12:49:00,63.3,50.1,30.09,WNW,285,10.1,10.1,62,0.00,,SKC,0.00,VWS V13.01,2013-03-06 18:49:00,
2013-03-06 12:54:00,63.3,50.1,30.09,NW,309,4.9,11.0,62,0.00,,SKC,0.00,VWS V13.01,2013-03-06 18:54:00,
2013-03-06 12:59:00,63.7,50.4,30.09,NNE,27,3.6,7.6,62,0.00,,SKC,0.00,VWS V13.01,2013-03-06 18:59:00,
2013-03-06 13:04:00,64.0,50.8,30.09,NW,304,13.2,13.2,62,0.00,,SKC,0.00,VWS V13.01,2013-03-06 19:04:00,
2013-03-06 13:09:00,63.9,50.6,30.09,NNE,21,12.3,12.3,62,0.00,,SKC,0.00,VWS V13.01,2013-03-06 19:09:00,
2013-03-06 13:14:00,63.1,49.9,30.09,NNE,31,7.6,10.1,62,0.00,,SKC,0.00,VWS V13.01,2013-03-06 19:14:00,
2013-03-06 13:19:00,63.1,49.9,30.06,NNE,26,5.8,6.3,62,0.00,,SKC,0.00,VWS V13.01,2013-03-06 19:19:00,
2013-03-06 13:24:00,63.3,50.1,30.06,NW,323,3.6,7.2,62,0.00,,SKC,0.00,VWS V13.01,2013-03-06 19:24:00,
2013-03-06 13:29:00,63.3,50.1,30.06,NE,46,5.8,8.3,62,0.00,,SKC,0.00,VWS V13.01,2013-03-06 19:29:00,
2013-03-06 13:34:00,63.9,50.6,30.06,NNW,348,6.3,7.6,62,0.00,,SKC,0.00,VWS V13.01,2013-03-06 19:34:00,
2013-03-06 13:39:00,64.0,50.8,30.06,NW,325,7.6,10.1,62,0.00,,SKC,0.00,VWS V13.01,2013-03-06 19:39:00,
2013-03-06 13:44:00,63.7,50.4,30.06,North,10,8.1,8.1,62,0.00,,SKC,0.00,VWS V13.01,2013-03-06 19:44:00,
2013-03-06 13:49:00,63.3,50.1,30.06,NW,317,7.6,7.6,62,0.00,,SKC,0.00,VWS V13.01,2013-03-06 19:49:00,
2013-03-06 13:54:00,63.5,50.3,30.06,NNW,329,4.9,8.3,62,0.00,,SKC,0.00,VWS V13.01,2013-03-06 19:54:00,
2013-03-06 13:59:00,63.9,50.6,30.06,NNW,333,3.1,5.4,62,0.00,,SKC,0.00,VWS V13.01,2013-03-06 19:59:00,
2013-03-06 14:04:00,64.2,50.9,30.06,NW,321,6.3,7.6,62,0.00,,SKC,0.00,VWS V13.01,2013-03-06 20:04:00,
2013-03-06 14:09:00,64.6,51.3,30.06,NW,317,7.6,7.6,62,0.00,,SKC,0.00,VWS V13.01,2013-03-06 20:09:00,
2013-03-06 14:14:00,64.6,51.3,30.06,NW,324,9.6,11.9,62,0.00,,SKC,0.00,VWS V13.01,2013-03-06 20:14:00,
2013-03-06 14:18:00,64.8,51.5,30.06,ENE,57,12.3,12.3,62,0.00,,SKC,0.00,VWS V13.01,2013-03-06 20:18:00,
2013-03-06 14:23:00,64.8,51.5,30.06,North,350,10.5,10.5,62,0.00,,SKC,0.00,VWS V13.01,2013-03-06 20:23:00,
2013-03-06 14:28:00,64.6,51.3,30.06,East,86,4.9,5.8,62,0.00,,SKC,0.00,VWS V13.01,2013-03-06 20:28:00,
2013-03-06 14:33:00,65.1,51.8,30.06,SW,233,2.7,6.3,62,0.00,,SKC,0.00,VWS V13.01,2013-03-06 20:33:00,
2013-03-06 14:38:00,64.8,51.5,30.06,NNE,29,6.3,6.3,62,0.00,,SKC,0.00,VWS V13.01,2013-03-06 20:38:00,
2013-03-06 14:43:00,64.8,51.5,30.06,North,349,8.1,8.1,62,0.00,,SKC,0.00,VWS V13.01,2013-03-06 20:43:00,
2013-03-06 14:48:00,64.6,51.3,30.03,ENE,62,2.7,2.7,62,0.00,,SKC,0.00,VWS V13.01,2013-03-06 20:48:00,
2013-03-06 14:53:00,64.4,51.1,30.03,NNE,13,6.3,6.3,62,0.00,,SKC,0.00,VWS V13.01,2013-03-06 20:53:00,
2013-03-06 14:58:00,64.6,51.3,30.03,NNE,18,2.7,8.1,62,0.00,,SKC,0.00,VWS V13.01,2013-03-06 20:58:00,
2013-03-06 15:03:00,64.4,51.1,30.03,WNW,298,2.7,2.7,62,0.00,,SKC,0.00,VWS V13.01,2013-03-06 21:03:00,
2013-03-06 15:08:00,64.6,51.3,30.03,NNE,30,10.1,10.1,62,0.00,,SKC,0.00,VWS V13.01,2013-03-06 21:08:00,
2013-03-06 15:13:00,64.2,50.9,30.03,ENE,57,6.3,6.3,62,0.00,,SKC,0.00,VWS V13.01,2013-03-06 21:13:00,
2013-03-06 15:18:00,64.4,51.1,30.03,East,83,4.9,5.8,62,0.00,,SKC,0.00,VWS V13.01,2013-03-06 21:18:00,
2013-03-06 15:23:00,64.4,51.1,30.03,NNE,31,5.4,8.1,62,0.00,,SKC,0.00,VWS V13.01,2013-03-06 21:23:00,
2013-03-06 15:28:00,64.2,50.9,30.03,NNW,328,3.6,10.5,62,0.00,,SKC,0.00,VWS V13.01,2013-03-06 21:28:00,
2013-03-06 15:33:00,64.0,50.8,30.03,ENE,64,3.1,4.9,62,0.00,,SKC,0.00,VWS V13.01,2013-03-06 21:33:00,
2013-03-06 15:38:00,63.9,50.6,30.03,NE,39,6.3,6.3,62,0.00,,SKC,0.00,VWS V13.01,2013-03-06 21:38:00,
2013-03-06 15:43:00,63.9,50.6,30.03,NE,42,2.2,2.2,62,0.00,,SKC,0.00,VWS V13.01,2013-03-06 21:43:00,
2013-03-06 15:48:00,63.9,50.6,30.03,NNE,19,3.6,3.6,62,0.00,,SKC,0.00,VWS V13.01,2013-03-06 21:48:00,
2013-03-06 15:53:00,63.7,50.4,30.03,NE,44,4.0,10.1,62,0.00,,SKC,0.00,VWS V13.01,2013-03-06 21:53:00,
2013-03-06 15:58:00,63.3,50.1,30.03,NE,45,8.1,10.1,62,0.00,,SKC,0.00,VWS V13.01,2013-03-06 21:58:00,
2013-03-06 16:03:00,63.3,49.2,30.03,NE,53,2.2,3.1,60,0.00,,SKC,0.00,VWS V13.01,2013-03-06 22:03:00,
2013-03-06 16:08:00,63.5,50.3,30.03,NNE,18,3.6,4.0,62,0.00,,SKC,0.00,VWS V13.01,2013-03-06 22:08:00,
2013-03-06 16:13:00,63.1,49.0,30.03,NNE,29,4.0,4.0,60,0.00,,SKC,0.00,VWS V13.01,2013-03-06 22:13:00,
2013-03-06 16:18:00,63.0,48.9,30.03,NE,44,3.1,3.1,60,0.00,,SKC,0.00,VWS V13.01,2013-03-06 22:18:00,
2013-03-06 16:23:00,63.0,48.9,30.03,NNE,29,4.0,7.6,60,0.00,,SKC,0.00,VWS V13.01,2013-03-06 22:23:00,
2013-03-06 16:28:00,63.0,48.9,30.03,NNW,340,7.6,7.6,60,0.00,,SKC,0.00,VWS V13.01,2013-03-06 22:28:00,
2013-03-06 16:33:00,63.0,48.9,30.03,NNE,14,2.7,5.8,60,0.00,,SKC,0.00,VWS V13.01,2013-03-06 22:33:00,
2013-03-06 16:38:00,63.0,48.9,30.03,NNE,16,3.6,8.3,60,0.00,,SKC,0.00,VWS V13.01,2013-03-06 22:38:00,
2013-03-06 16:43:00,62.4,48.4,30.03,NE,35,10.1,10.1,60,0.00,,SKC,0.00,VWS V13.01,2013-03-06 22:43:00,
2013-03-06 16:48:00,62.1,48.0,30.06,NNW,347,2.7,5.4,60,0.00,,SKC,0.00,VWS V13.01,2013-03-06 22:48:00,
2013-03-06 16:53:00,61.9,47.9,30.06,ENE,71,0.0,0.0,60,0.00,,SKC,0.00,VWS V13.01,2013-03-06 22:53:00,
2013-03-06 16:58:00,61.7,47.7,30.06,East,93,0.0,0.0,60,0.00,,SKC,0.00,VWS V13.01,2013-03-06 22:58:00,
2013-03-06 17:03:00,61.3,47.3,30.06,NW,313,3.6,5.8,60,0.00,,SKC,0.00,VWS V13.01,2013-03-06 23:03:00,
2013-03-06 17:08:00,61.0,47.0,30.06,NE,42,4.0,7.6,60,0.00,,SKC,0.00,VWS V13.01,2013-03-06 23:08:00,
2013-03-06 17:13:00,60.8,46.8,30.06,NNE,27,3.1,4.0,60,0.00,,SKC,0.00,VWS V13.01,2013-03-06 23:13:00,
2013-03-06 17:18:00,60.4,46.9,30.06,East,93,5.4,6.3,61,0.00,,SKC,0.00,VWS V13.01,2013-03-06 23:18:00,
2013-03-06 17:23:00,60.1,46.6,30.06,NNW,347,3.6,4.0,61,0.00,,SKC,0.00,VWS V13.01,2013-03-06 23:23:00,
2013-03-06 17:28:00,59.7,46.3,30.06,NE,50,2.7,4.0,61,0.00,,SKC,0.00,VWS V13.01,2013-03-06 23:28:00,
2013-03-06 17:33:00,59.5,46.1,30.06,North,349,4.0,5.4,61,0.00,,SKC,0.00,VWS V13.01,2013-03-06 23:33:00,
2013-03-06 17:38:00,59.2,45.8,30.06,NNE,22,3.6,5.8,61,0.00,,SKC,0.00,VWS V13.01,2013-03-06 23:38:00,
2013-03-06 17:43:00,58.8,45.4,30.06,NNE,25,4.5,5.4,61,0.00,,SKC,0.00,VWS V13.01,2013-03-06 23:43:00,
2013-03-06 17:48:00,58.5,45.1,30.06,North,360,0.0,4.0,61,0.00,,SKC,0.00,VWS V13.01,2013-03-06 23:48:00,
2013-03-06 17:53:00,58.1,44.7,30.06,North,354,0.0,0.0,61,0.00,,SKC,0.00,VWS V13.01,2013-03-06 23:53:00,
2013-03-06 17:58:00,57.7,44.4,30.06,NW,312,5.4,5.4,61,0.00,,SKC,0.00,VWS V13.01,2013-03-06 23:58:00,
2013-03-06 18:03:00,57.4,44.1,30.06,ENE,60,0.0,3.1,61,0.00,,SKC,0.00,VWS V13.01,2013-03-07 00:03:00,
2013-03-06 18:08:00,56.8,43.5,30.06,North,360,0.0,0.0,61,0.00,,SKC,0.00,VWS V13.01,2013-03-07 00:08:00,
2013-03-06 18:13:00,56.5,43.2,30.06,NNW,341,0.0,0.0,61,0.00,,SKC,0.00,VWS V13.01,2013-03-07 00:13:00,
2013-03-06 18:18:00,55.8,42.5,30.09,NNW,341,0.0,0.0,61,0.00,,SKC,0.00,VWS V13.01,2013-03-07 00:18:00,
2013-03-06 18:23:00,55.0,42.3,30.09,North,357,0.0,0.0,62,0.00,,SKC,0.00,VWS V13.01,2013-03-07 00:23:00,
2013-03-06 18:28:00,54.3,41.6,30.09,North,357,0.0,0.0,62,0.00,,SKC,0.00,VWS V13.01,2013-03-07 00:28:00,
2013-03-06 18:33:00,53.6,40.9,30.09,North,357,0.0,0.0,62,0.00,,SKC,0.00,VWS V13.01,2013-03-07 00:33:00,
2013-03-06 18:38:00,53.1,40.4,30.09,NNE,21,0.0,0.0,62,0.00,,SKC,0.00,VWS V13.01,2013-03-07 00:38:00,
2013-03-06 18:43:00,52.7,40.1,30.09,NNE,27,0.0,0.0,62,0.00,,SKC,0.00,VWS V13.01,2013-03-07 00:43:00,
2013-03-06 18:48:00,52.3,39.7,30.09,NNE,18,0.0,3.1,62,0.00,,SKC,0.00,VWS V13.01,2013-03-07 00:48:00,
2013-03-06 18:53:00,52.0,39.4,30.09,NNE,15,0.0,0.0,62,0.00,,SKC,0.00,VWS V13.01,2013-03-07 00:53:00,
2013-03-06 18:58:00,51.6,39.5,30.09,NE,48,0.0,0.0,63,0.00,,SKC,0.00,VWS V13.01,2013-03-07 00:58:00,
2013-03-06 19:03:00,51.4,39.3,30.09,NE,48,0.0,0.0,63,0.00,,SKC,0.00,VWS V13.01,2013-03-07 01:03:00,
2013-03-06 19:08:00,51.1,38.9,30.09,NE,48,0.0,0.0,63,0.00,,SKC,0.00,VWS V13.01,2013-03-07 01:08:00,
2013-03-06 19:13:00,50.7,38.6,30.09,NE,48,0.0,0.0,63,0.00,,SKC,0.00,VWS V13.01,2013-03-07 01:13:00,
2013-03-06 19:18:00,50.4,38.3,30.09,NE,48,0.0,0.0,63,0.00,,SKC,0.00,VWS V13.01,2013-03-07 01:18:00,
2013-03-06 19:23:00,50.2,38.1,30.09,NE,48,0.0,0.0,63,0.00,,SKC,0.00,VWS V13.01,2013-03-07 01:23:00,
2013-03-06 19:28:00,50.0,37.9,30.09,NE,48,0.0,0.0,63,0.00,,SKC,0.00,VWS V13.01,2013-03-07 01:28:00,
2013-03-06 19:33:00,49.6,37.6,30.09,NE,48,0.0,0.0,63,0.00,,SKC,0.00,VWS V13.01,2013-03-07 01:33:00,
2013-03-06 19:38:00,49.3,37.2,30.09,NE,48,0.0,0.0,63,0.00,,SKC,0.00,VWS V13.01,2013-03-07 01:38:00,
2013-03-06 19:43:00,49.1,37.1,30.09,NE,48,0.0,0.0,63,0.00,,SKC,0.00,VWS V13.01,2013-03-07 01:43:00,
2013-03-06 19:48:00,48.9,36.9,30.12,NE,48,0.0,0.0,63,0.00,,SKC,0.00,VWS V13.01,2013-03-07 01:48:00,
2013-03-06 19:53:00,48.6,36.5,30.12,NE,48,0.0,0.0,63,0.00,,SKC,0.00,VWS V13.01,2013-03-07 01:53:00,
2013-03-06 19:58:00,48.2,36.2,30.12,NE,48,0.0,0.0,63,0.00,,SKC,0.00,VWS V13.01,2013-03-07 01:58:00,
2013-03-06 20:03:00,48.0,36.0,30.12,NE,48,0.0,0.0,63,0.00,,SKC,0.00,VWS V13.01,2013-03-07 02:03:00,
2013-03-06 20:08:00,47.8,35.9,30.12,NE,48,0.0,0.0,63,0.00,,SKC,0.00,VWS V13.01,2013-03-07 02:08:00,
2013-03-06 20:13:00,47.7,35.7,30.12,NE,48,0.0,0.0,63,0.00,,SKC,0.00,VWS V13.01,2013-03-07 02:13:00,
2013-03-06 20:18:00,47.3,35.4,30.12,NE,48,0.0,0.0,63,0.00,,SKC,0.00,VWS V13.01,2013-03-07 02:18:00,
2013-03-06 20:23:00,47.3,35.4,30.12,NE,48,0.0,0.0,63,0.00,,SKC,0.00,VWS V13.01,2013-03-07 02:23:00,
2013-03-06 20:28:00,46.9,35.0,30.12,NE,48,0.0,0.0,63,0.00,,SKC,0.00,VWS V13.01,2013-03-07 02:28:00,
2013-03-06 20:33:00,46.6,34.7,30.12,NE,48,0.0,0.0,63,0.00,,SKC,0.00,VWS V13.01,2013-03-07 02:33:00,
2013-03-06 20:38:00,46.4,34.5,30.12,NE,48,0.0,0.0,63,0.00,,SKC,0.00,VWS V13.01,2013-03-07 02:38:00,
2013-03-06 20:43:00,46.2,34.7,30.12,NE,48,0.0,0.0,64,0.00,,SKC,0.00,VWS V13.01,2013-03-07 02:43:00,
2013-03-06 20:48:00,46.0,34.6,30.12,NE,48,0.0,0.0,64,0.00,,SKC,0.00,VWS V13.01,2013-03-07 02:48:00,
2013-03-06 20:53:00,45.9,34.4,30.12,NE,48,0.0,0.0,64,0.00,,SKC,0.00,VWS V13.01,2013-03-07 02:53:00,
2013-03-06 20:58:00,45.7,34.2,30.12,NE,48,0.0,0.0,64,0.00,,SKC,0.00,VWS V13.01,2013-03-07 02:58:00,
2013-03-06 21:03:00,46.0,34.6,30.12,NE,48,0.0,0.0,64,0.00,,SKC,0.00,VWS V13.01,2013-03-07 03:03:00,
2013-03-06 21:08:00,45.9,34.4,30.12,NE,48,0.0,0.0,64,0.00,,SKC,0.00,VWS V13.01,2013-03-07 03:08:00,
2013-03-06 21:13:00,45.1,33.7,30.12,NE,48,0.0,0.0,64,0.00,,SKC,0.00,VWS V13.01,2013-03-07 03:13:00,
2013-03-06 21:18:00,44.2,32.8,30.12,NE,48,0.0,0.0,64,0.00,,SKC,0.00,VWS V13.01,2013-03-07 03:18:00,
2013-03-06 21:23:00,44.1,32.7,30.12,NE,48,0.0,0.0,64,0.00,,SKC,0.00,VWS V13.01,2013-03-07 03:23:00,
2013-03-06 21:28:00,43.7,32.3,30.12,NE,48,0.0,0.0,64,0.00,,SKC,0.00,VWS V13.01,2013-03-07 03:28:00,
2013-03-06 21:33:00,43.5,32.2,30.12,NE,48,0.0,0.0,64,0.00,,SKC,0.00,VWS V13.01,2013-03-07 03:33:00,
2013-03-06 21:38:00,43.3,32.0,30.12,NE,48,0.0,0.0,64,0.00,,SKC,0.00,VWS V13.01,2013-03-07 03:38:00,
2013-03-06 21:43:00,43.3,33.1,30.12,NE,48,0.0,0.0,67,0.00,,SKC,0.00,VWS V13.01,2013-03-07 03:43:00,
2013-03-06 21:48:00,43.3,33.1,30.15,NE,48,0.0,0.0,67,0.00,,SKC,0.00,VWS V13.01,2013-03-07 03:48:00,
2013-03-06 21:53:00,43.5,33.3,30.15,NE,48,0.0,0.0,67,0.00,,SKC,0.00,VWS V13.01,2013-03-07 03:53:00,
2013-03-06 21:58:00,43.5,33.3,30.15,NE,48,0.0,0.0,67,0.00,,SKC,0.00,VWS V13.01,2013-03-07 03:58:00,
2013-03-06 22:03:00,43.5,32.2,30.15,NE,48,0.0,0.0,64,0.00,,SKC,0.00,VWS V13.01,2013-03-07 04:03:00,
2013-03-06 22:08:00,43.3,32.0,30.15,NE,48,0.0,0.0,64,0.00,,SKC,0.00,VWS V13.01,2013-03-07 04:08:00,
2013-03-06 22:13:00,43.0,31.6,30.15,NE,48,0.0,0.0,64,0.00,,SKC,0.00,VWS V13.01,2013-03-07 04:13:00,
2013-03-06 22:18:00,42.6,31.7,30.15,NE,48,0.0,0.0,65,0.00,,SKC,0.00,VWS V13.01,2013-03-07 04:18:00,
2013-03-06 22:23:00,42.3,31.4,30.15,NE,48,0.0,0.0,65,0.00,,SKC,0.00,VWS V13.01,2013-03-07 04:23:00,
2013-03-06 22:28:00,41.7,30.8,30.15,NE,48,0.0,0.0,65,0.00,,SKC,0.00,VWS V13.01,2013-03-07 04:28:00,
2013-03-06 22:33:00,41.5,31.4,30.15,NE,48,0.0,0.0,67,0.00,,SKC,0.00,VWS V13.01,2013-03-07 04:33:00,
2013-03-06 22:38:00,41.4,31.2,30.15,NE,48,0.0,0.0,67,0.00,,SKC,0.00,VWS V13.01,2013-03-07 04:38:00,
2013-03-06 22:43:00,41.2,31.1,30.15,NE,48,0.0,0.0,67,0.00,,SKC,0.00,VWS V13.01,2013-03-07 04:43:00,
2013-03-06 22:48:00,41.2,31.1,30.12,NE,34,0.0,0.0,67,0.00,,SKC,0.00,VWS V13.01,2013-03-07 04:48:00,
2013-03-06 22:53:00,41.4,32.3,30.12,NNE,29,0.0,0.0,70,0.00,,SKC,0.00,VWS V13.01,2013-03-07 04:53:00,
2013-03-06 22:58:00,41.5,31.4,30.12,NNE,20,0.0,0.0,67,0.00,,SKC,0.00,VWS V13.01,2013-03-07 04:58:00,
2013-03-06 23:00:00,41.7,31.6,30.12,NE,40,2.7,2.7,67,0.00,,SKC,0.00,VWS V13.01,2013-03-07 05:00:00,
2013-03-06 23:05:00,42.3,32.1,30.12,NE,37,0.0,0.0,67,0.00,,SKC,0.00,VWS V13.01,2013-03-07 05:05:00,
2013-03-06 23:10:00,42.1,31.9,30.12,NE,53,0.0,0.0,67,0.00,,SKC,0.00,VWS V13.01,2013-03-07 05:10:00,
2013-03-06 23:15:00,42.1,31.9,30.12,NE,49,0.0,0.0,67,0.00,,SKC,0.00,VWS V13.01,2013-03-07 05:15:00,
2013-03-06 23:20:00,42.1,31.9,30.12,NNE,32,0.0,0.0,67,0.00,,SKC,0.00,VWS V13.01,2013-03-07 05:20:00,
2013-03-06 23:25:00,42.3,32.1,30.12,ENE,60,0.0,2.2,67,0.00,,SKC,0.00,VWS V13.01,2013-03-07 05:25:00,
2013-03-06 23:30:00,42.1,31.9,30.12,ENE,60,0.0,0.0,67,0.00,,SKC,0.00,VWS V13.01,2013-03-07 05:30:00,
2013-03-06 23:35:00,41.7,31.6,30.12,ENE,57,0.0,0.0,67,0.00,,SKC,0.00,VWS V13.01,2013-03-07 05:35:00,
2013-03-06 23:40:00,41.7,31.6,30.12,NNE,18,0.0,0.0,67,0.00,,SKC,0.00,VWS V13.01,2013-03-07 05:40:00,
2013-03-06 23:45:00,41.7,31.6,30.12,ENE,57,0.0,0.0,67,0.00,,SKC,0.00,VWS V13.01,2013-03-07 05:45:00,
2013-03-06 23:50:00,41.7,31.6,30.12,ENE,62,0.0,0.0,67,0.00,,SKC,0.00,VWS V13.01,2013-03-07 05:50:00,
2013-03-06 23:55:00,41.7,31.6,30.12,ENE,62,0.0,0.0,67,0.00,,SKC,0.00,VWS V13.01,2013-03-07 05:55:00,